Time;durP1;ratioP1;P1;durP2;ratioP2;P2;SDS_P1;SDS_P2;PMS_P1;PMS_P2;Temp;Humidity;BMP_temperature;BMP_pressure;BME280_temperature;BME280_humidity;BME280_pressure;Samples;Min_cycle;Max_cycle;Signal;HPM_P1;HPM_P2
2022/11/16 00:00:31;;;;;;;18.05;10.25;;;;;;;-1.41;85.41;99293.53;4985333;28;20029;-63
2022/11/16 00:03:02;;;;;;;17.75;9.48;;;;;;;-1.36;84.37;99301.22;4985034;28;20264;-64
2022/11/16 00:05:27;;;;;;;17.80;9.07;;;;;;;-1.41;84.61;99282.47;4985237;28;20086;-65
2022/11/16 00:07:53;;;;;;;15.48;9.07;;;;;;;-1.59;84.94;99290.59;4984944;28;20066;-64
2022/11/16 00:10:19;;;;;;;13.95;10.00;;;;;;;-1.59;84.33;99293.13;4985330;28;20322;-64
2022/11/16 00:12:44;;;;;;;15.38;8.93;;;;;;;-1.62;85.51;99293.94;4985147;28;20046;-65
2022/11/16 00:15:10;;;;;;;13.88;8.73;;;;;;;-1.60;85.36;99292.25;4984012;28;20044;-64
2022/11/16 00:17:35;;;;;;;14.27;8.55;;;;;;;-1.57;84.53;99288.94;4985134;28;20034;-64
2022/11/16 00:20:01;;;;;;;13.82;8.88;;;;;;;-1.33;84.37;99291.13;4985314;28;20050;-64
2022/11/16 00:22:29;;;;;;;12.80;8.27;;;;;;;-1.40;83.76;99289.28;5001402;28;20026;-64
2022/11/16 00:24:58;;;;;;;13.77;7.70;;;;;;;-1.71;84.80;99292.88;5002822;28;20158;-64
2022/11/16 00:27:24;;;;;;;14.07;8.10;;;;;;;-1.57;85.05;99292.34;4964282;28;20046;-65
2022/11/16 00:29:50;;;;;;;16.80;7.78;;;;;;;-1.58;84.23;99290.63;5004690;28;20026;-64
2022/11/16 00:32:15;;;;;;;13.75;6.97;;;;;;;-1.68;84.54;99296.34;4982857;28;20027;-66
2022/11/16 00:34:41;;;;;;;15.07;7.88;;;;;;;-1.95;85.06;99274.63;4984981;28;20038;-65
2022/11/16 00:37:07;;;;;;;13.77;7.28;;;;;;;-1.88;84.80;99284.88;4980717;28;20195;-64
2022/11/16 00:39:33;;;;;;;13.70;7.20;;;;;;;-1.81;85.33;99291.81;4978564;28;20031;-64
2022/11/16 00:41:58;;;;;;;13.23;7.95;;;;;;;-1.89;84.03;99296.72;4984576;28;20034;-62
2022/11/16 00:44:24;;;;;;;16.23;7.85;;;;;;;-1.88;84.40;99305.19;4984494;28;20026;-63
2022/11/16 00:46:49;;;;;;;14.35;7.35;;;;;;;-2.06;84.03;99305.66;4983821;28;20026;-62
2022/11/16 00:49:15;;;;;;;10.98;7.75;;;;;;;-2.05;85.12;99303.16;4984584;28;20026;-61
2022/11/16 00:51:41;;;;;;;14.07;8.25;;;;;;;-2.09;85.53;99297.13;4985066;28;20065;-62
2022/11/16 00:54:07;;;;;;;14.50;8.20;;;;;;;-1.92;84.60;99292.44;4984586;28;20030;-62
2022/11/16 00:56:34;;;;;;;15.50;7.55;;;;;;;-1.95;84.61;99299.13;4984548;28;20041;-62
2022/11/16 00:58:59;;;;;;;13.82;8.10;;;;;;;-1.87;84.93;99299.28;4984722;28;20096;-63
2022/11/16 01:01:25;;;;;;;13.57;7.75;;;;;;;-2.15;84.61;99289.38;4984034;28;20039;-62
2022/11/16 01:03:51;;;;;;;11.93;7.68;;;;;;;-2.15;84.40;99302.06;4984423;28;20355;-62
2022/11/16 01:06:16;;;;;;;13.75;7.55;;;;;;;-2.08;85.06;99303.06;4983775;28;20034;-62
2022/11/16 01:08:43;;;;;;;12.50;7.78;;;;;;;-2.03;84.14;99283.72;4977314;28;20035;-63
2022/11/16 01:13:55;;;;;;;15.23;8.50;;;;;;;-2.10;84.53;99299.63;5000409;28;20034;-63
2022/11/16 01:16:22;;;;;;;14.18;8.35;;;;;;;-2.08;83.68;99282.78;5002634;28;20026;-63
2022/11/16 01:18:51;;;;;;;13.82;8.70;;;;;;;-1.95;84.05;99297.44;4996585;28;20149;-63
2022/11/16 01:21:17;;;;;;;13.65;8.13;;;;;;;-1.93;83.65;99297.47;4984094;28;20337;-63
2022/11/16 01:23:43;;;;;;;14.75;7.40;;;;;;;-2.09;83.74;99294.59;4992367;28;20037;-63
2022/11/16 01:26:09;;;;;;;13.93;8.10;;;;;;;-1.99;83.73;99282.97;5000899;28;20023;-63
2022/11/16 01:28:35;;;;;;;11.32;6.97;;;;;;;-2.15;82.92;99298.66;4990540;28;20035;-64
2022/11/16 01:31:01;;;;;;;12.20;8.18;;;;;;;-2.13;84.21;99294.50;4984311;28;20352;-64
2022/11/16 01:33:27;;;;;;;12.43;7.95;;;;;;;-2.19;83.71;99300.28;4984018;28;20030;-63
2022/11/16 01:35:53;;;;;;;15.27;7.97;;;;;;;-2.44;83.73;99243.94;4983938;28;20035;-64
2022/11/16 01:38:19;;;;;;;14.98;7.97;;;;;;;-2.14;83.10;99291.09;4982854;28;20034;-63
2022/11/16 01:40:45;;;;;;;14.65;7.97;;;;;;;-2.18;83.09;99296.94;4983960;28;20034;-63
2022/11/16 01:43:23;;;;;;;12.60;7.30;;;;;;;-2.15;83.28;99280.91;4994027;28;20034;-64
2022/11/16 01:45:49;;;;;;;12.55;7.38;;;;;;;-1.89;83.84;99298.41;4996505;28;20222;-64
2022/11/16 01:48:19;;;;;;;14.15;8.05;;;;;;;-2.15;82.64;99289.38;4984057;28;20039;-64
2022/11/16 01:50:47;;;;;;;13.93;7.57;;;;;;;-2.08;82.38;99292.94;4984134;28;20343;-64
2022/11/16 01:53:13;;;;;;;14.18;7.85;;;;;;;-2.05;82.39;99302.25;5015551;28;20089;-64
2022/11/16 01:55:42;;;;;;;12.80;7.45;;;;;;;-2.08;82.19;99309.00;4984128;28;20045;-63
2022/11/16 01:58:13;;;;;;;15.45;7.72;;;;;;;-2.15;82.21;99296.13;4985071;28;20090;-64
2022/11/16 02:00:39;;;;;;;12.68;7.50;;;;;;;-2.11;82.36;99306.41;5019117;28;20284;-64
2022/11/16 02:03:04;;;;;;;13.07;6.90;;;;;;;-2.32;81.82;99305.91;4987659;28;20030;-64
2022/11/16 02:05:46;;;;;;;11.95;6.93;;;;;;;-2.45;82.03;99279.38;4987598;28;20173;-64
2022/11/16 02:11:45;;;;;;;11.90;6.22;;;;;;;-2.46;81.60;99321.59;4987686;28;19924;-64
2022/11/16 02:14:35;;;;;;;10.63;6.65;;;;;;;-2.40;81.64;99322.59;4987526;28;20030;-63
2022/11/16 02:17:45;;;;;;;9.82;6.15;;;;;;;-2.40;81.09;99320.91;4986964;28;20319;-63
2022/11/16 02:20:32;;;;;;;11.75;6.90;;;;;;;-2.44;80.67;99317.44;4977452;28;20039;-63
2022/11/16 02:23:25;;;;;;;13.15;6.30;;;;;;;-2.48;81.17;99328.31;5020238;28;20027;-63
2022/11/16 02:26:12;;;;;;;9.00;6.03;;;;;;;-2.60;79.99;99330.53;4991405;28;20072;-64
2022/11/16 02:29:01;;;;;;;8.07;5.82;;;;;;;-2.80;80.66;99305.53;5018500;28;20038;-64
2022/11/16 02:31:35;;;;;;;11.45;5.50;;;;;;;-2.82;81.62;99321.50;4986916;28;20212;-63
2022/11/16 02:34:04;;;;;;;9.75;6.22;;;;;;;-2.90;80.65;99307.81;4987062;28;20219;-63
2022/11/16 02:36:33;;;;;;;7.95;5.20;;;;;;;-2.91;80.60;99311.16;4986611;28;20030;-63
2022/11/16 02:39:13;;;;;;;11.20;5.53;;;;;;;-2.88;80.77;99326.44;4987162;28;20042;-64
2022/11/16 02:41:43;;;;;;;7.47;4.80;;;;;;;-2.76;80.21;99324.22;4970644;28;20030;-63
2022/11/16 02:44:13;;;;;;;9.68;5.15;;;;;;;-2.86;80.01;99310.44;4987031;28;20026;-65
2022/11/16 02:46:42;;;;;;;9.95;5.13;;;;;;;-2.91;79.95;99317.06;4985597;28;20033;-64
2022/11/16 02:49:17;;;;;;;9.63;5.38;;;;;;;-2.86;81.28;99337.47;4986844;28;20172;-64
2022/11/16 02:51:46;;;;;;;10.38;5.32;;;;;;;-2.86;80.30;99317.22;4986555;28;20042;-64
2022/11/16 02:54:20;;;;;;;10.75;5.82;;;;;;;-2.78;80.17;99341.03;4986567;28;20034;-64
2022/11/16 02:56:52;;;;;;;9.50;5.28;;;;;;;-2.65;79.80;99342.22;4986692;28;20034;-64
2022/11/16 02:59:18;;;;;;;8.48;5.60;;;;;;;-2.79;79.81;99346.94;5004813;28;20054;-64
2022/11/16 03:01:56;;;;;;;8.23;4.72;;;;;;;-3.19;80.56;99323.94;4991246;28;20034;-63
2022/11/16 03:04:35;;;;;;;12.82;5.85;;;;;;;-3.11;79.64;99339.31;4986527;28;20023;-65
2022/11/16 03:07:04;;;;;;;8.63;5.50;;;;;;;-2.98;79.63;99350.66;4986640;28;20169;-63
2022/11/16 03:09:34;;;;;;;10.38;5.57;;;;;;;-3.13;80.24;99351.09;4985320;28;20050;-65
2022/11/16 03:12:04;;;;;;;10.13;5.30;;;;;;;-3.09;80.25;99329.22;5018063;28;20027;-63
2022/11/16 03:14:42;;;;;;;10.95;5.72;;;;;;;-3.26;80.19;99354.06;4967052;29;20023;-64
2022/11/16 03:17:22;;;;;;;10.73;5.50;;;;;;;-3.16;79.76;99339.19;5000342;28;20030;-63
2022/11/16 03:19:58;;;;;;;8.98;4.95;;;;;;;-3.24;79.99;99343.19;4991768;28;20035;-63
2022/11/16 03:22:36;;;;;;;9.45;5.28;;;;;;;-3.13;80.24;99358.69;4986382;28;20062;-64
2022/11/16 03:25:03;;;;;;;9.38;5.10;;;;;;;-3.14;79.68;99349.38;4998141;28;20050;-63
2022/11/16 03:27:43;;;;;;;8.98;5.13;;;;;;;-3.15;79.71;99350.19;4986216;28;20023;-64
2022/11/16 03:30:15;;;;;;;9.88;5.43;;;;;;;-3.13;79.98;99351.94;4986275;28;20058;-64
2022/11/16 03:33:11;;;;;;;7.75;4.95;;;;;;;-3.16;79.84;99353.53;4990225;28;20077;-64
2022/11/16 03:35:48;;;;;;;9.63;5.40;;;;;;;-3.23;79.24;99361.78;4985509;28;20204;-64
2022/11/16 03:38:16;;;;;;;8.88;5.38;;;;;;;-3.34;80.73;99361.47;4988957;28;20042;-65
2022/11/16 03:40:44;;;;;;;9.88;4.93;;;;;;;-3.29;79.90;99375.13;4985684;28;20031;-65
2022/11/16 03:43:10;;;;;;;8.25;4.93;;;;;;;-3.20;80.08;99372.00;4985853;28;20045;-63
2022/11/16 03:45:36;;;;;;;11.45;4.60;;;;;;;-3.19;79.72;99371.16;4985561;28;20035;-64
2022/11/16 03:48:02;;;;;;;8.70;5.50;;;;;;;-3.17;78.88;99364.47;4984953;28;20031;-63
2022/11/16 03:50:28;;;;;;;7.40;4.82;;;;;;;-3.27;79.26;99362.50;4985573;28;20050;-64
2022/11/16 03:52:53;;;;;;;7.18;5.20;;;;;;;-3.49;79.46;99360.19;4985634;28;20125;-64
2022/11/16 03:55:19;;;;;;;11.40;5.18;;;;;;;-3.39;80.31;99368.06;4985499;28;20046;-64
2022/11/16 03:57:45;;;;;;;9.85;5.57;;;;;;;-3.32;79.96;99378.41;4984408;28;20090;-64
2022/11/16 04:00:11;;;;;;;9.75;5.47;;;;;;;-3.41;80.79;99374.75;4985596;28;20047;-63
2022/11/16 04:02:37;;;;;;;9.43;4.88;;;;;;;-3.25;79.42;99363.41;4983253;28;20041;-64
2022/11/16 04:24:30;;;;;;;10.55;7.50;;;;;;;-3.02;79.02;99387.72;4999494;28;20323;-64
2022/11/16 04:29:45;;;;;;;7.60;5.80;;;;;;;-3.21;79.15;99385.47;4983706;28;20027;-64
2022/11/16 04:37:48;;;;;;;12.88;6.30;;;;;;;-3.17;79.61;99394.88;4978511;28;20035;-64
2022/11/16 04:40:20;;;;;;;11.02;5.90;;;;;;;-3.09;78.92;99397.59;4985039;28;20050;-63
2022/11/16 04:42:56;;;;;;;11.30;6.53;;;;;;;-3.12;79.03;99380.69;4984586;28;20039;-64
2022/11/16 04:48:08;;;;;;;6.90;5.45;;;;;;;-2.99;78.89;99402.16;4984674;28;20054;-64
2022/11/16 04:50:34;;;;;;;9.95;4.90;;;;;;;-3.10;78.56;99400.97;4984465;28;20059;-63
2022/11/16 04:53:01;;;;;;;10.20;5.53;;;;;;;-3.28;78.04;99406.34;4999460;28;20034;-64
2022/11/16 04:55:26;;;;;;;9.75;5.90;;;;;;;-3.20;78.69;99407.44;4993492;28;20034;-63
2022/11/16 04:57:52;;;;;;;8.63;5.63;;;;;;;-3.40;78.85;99412.78;4984527;28;20027;-64
2022/11/16 05:00:18;;;;;;;10.63;5.70;;;;;;;-3.47;78.54;99413.41;4984272;28;20078;-65
2022/11/16 05:02:44;;;;;;;8.63;4.85;;;;;;;-3.58;78.11;99422.31;4984244;28;20098;-65
2022/11/16 05:05:10;;;;;;;11.32;5.35;;;;;;;-3.42;78.57;99416.06;4984507;28;20042;-65
2022/11/16 05:07:36;;;;;;;9.88;5.70;;;;;;;-3.70;78.81;99408.47;4984045;28;20141;-65
2022/11/16 05:10:05;;;;;;;8.80;5.10;;;;;;;-3.58;79.07;99404.63;4984371;28;20091;-64
2022/11/16 05:12:31;;;;;;;10.18;5.40;;;;;;;-3.57;78.88;99413.94;4984284;28;20105;-64
2022/11/16 05:14:57;;;;;;;8.32;5.60;;;;;;;-3.68;79.10;99422.06;4984326;28;20046;-64
2022/11/16 05:17:24;;;;;;;7.85;4.93;;;;;;;-3.65;79.45;99416.22;4984179;28;20074;-64
2022/11/16 05:22:34;;;;;;;8.02;5.57;;;;;;;-3.55;78.75;99422.41;4986106;28;20078;-65
2022/11/16 05:24:59;;;;;;;8.65;5.18;;;;;;;-3.71;79.27;99424.47;4997125;28;20022;-64
2022/11/16 05:27:27;;;;;;;8.77;5.70;;;;;;;-3.60;79.09;99417.22;4984126;28;20306;-63
2022/11/16 05:29:53;;;;;;;7.72;5.30;;;;;;;-3.79;78.71;99408.22;4984111;28;20030;-66
2022/11/16 05:32:21;;;;;;;11.25;6.18;;;;;;;-3.83;79.91;99416.50;4983056;28;20098;-63
2022/11/16 05:34:47;;;;;;;11.10;5.50;;;;;;;-3.81;79.91;99415.72;4987801;28;20035;-64
2022/11/16 05:37:13;;;;;;;9.27;5.82;;;;;;;-3.59;79.76;99425.66;4996303;28;20134;-65
2022/11/16 05:39:39;;;;;;;10.25;5.57;;;;;;;-3.34;79.87;99434.88;5003652;28;20089;-65
2022/11/16 05:42:06;;;;;;;7.72;5.53;;;;;;;-3.25;79.91;99434.28;5008825;28;20258;-64
2022/11/16 05:44:32;;;;;;;11.27;6.00;;;;;;;-3.24;78.48;99436.03;4988255;28;20073;-64
2022/11/16 05:46:58;;;;;;;7.30;5.38;;;;;;;-3.43;79.24;99445.59;4988310;28;20042;-65
2022/11/16 05:49:23;;;;;;;12.30;6.57;;;;;;;-3.47;78.10;99443.78;4987879;28;20054;-65
2022/11/16 05:51:49;;;;;;;9.48;6.07;;;;;;;-3.48;78.46;99449.63;4987772;28;20050;-64
2022/11/16 05:54:17;;;;;;;9.30;6.18;;;;;;;-3.54;79.15;99424.16;4987649;28;20121;-65
2022/11/16 05:56:44;;;;;;;10.30;6.53;;;;;;;-3.44;78.50;99448.06;4987783;28;20093;-67
2022/11/16 05:59:15;;;;;;;10.18;5.90;;;;;;;-3.48;78.12;99435.34;4987718;28;20055;-67
2022/11/16 06:01:40;;;;;;;9.85;6.45;;;;;;;-3.23;78.38;99453.78;4999547;28;20111;-66
2022/11/16 06:04:06;;;;;;;9.10;6.05;;;;;;;-3.21;78.11;99452.16;5000133;28;20089;-66
2022/11/16 06:06:32;;;;;;;8.70;5.88;;;;;;;-3.30;77.99;99435.00;4987529;28;20050;-67
2022/11/16 06:08:58;;;;;;;7.40;5.68;;;;;;;-3.33;77.70;99449.25;4987745;28;20038;-66
2022/11/16 06:11:24;;;;;;;8.75;6.10;;;;;;;-3.28;77.64;99450.25;4987841;28;20027;-67
2022/11/16 06:13:50;;;;;;;10.35;6.22;;;;;;;-3.21;78.03;99454.69;4987436;28;20038;-68
2022/11/16 06:16:15;;;;;;;11.02;6.10;;;;;;;-3.17;77.52;99451.44;4987539;28;20133;-67
2022/11/16 06:18:43;;;;;;;9.95;5.93;;;;;;;-3.45;77.36;99399.09;4985735;28;20323;-68
2022/11/16 06:21:10;;;;;;;11.15;6.10;;;;;;;-3.33;76.64;99451.78;4975866;28;20022;-66
2022/11/16 06:23:36;;;;;;;9.20;5.88;;;;;;;-3.31;76.80;99452.69;4995975;28;20034;-65
2022/11/16 06:26:02;;;;;;;9.60;5.95;;;;;;;-3.35;76.17;99445.81;4992356;28;20038;-67
2022/11/16 06:28:28;;;;;;;7.93;5.60;;;;;;;-3.64;76.16;99436.50;4996998;28;20082;-66
2022/11/16 06:30:54;;;;;;;9.35;5.18;;;;;;;-3.40;76.75;99453.28;5000465;28;20031;-68
2022/11/16 06:33:20;;;;;;;9.40;6.03;;;;;;;-3.32;76.41;99451.84;4987587;28;20023;-66
2022/11/16 06:35:46;;;;;;;9.50;6.22;;;;;;;-3.32;76.75;99451.84;5002218;28;20045;-67
2022/11/16 06:38:17;;;;;;;8.30;5.65;;;;;;;-3.19;76.72;99452.19;4998756;28;20199;-67
2022/11/16 06:40:51;;;;;;;10.00;6.15;;;;;;;-3.15;76.71;99443.88;4995795;28;20041;-66
2022/11/16 06:43:17;;;;;;;11.70;5.88;;;;;;;-3.30;75.39;99460.31;4993000;28;20069;-67
2022/11/16 06:45:48;;;;;;;11.52;6.22;;;;;;;-3.38;76.10;99431.38;4996185;28;20338;-66
2022/11/16 06:48:14;;;;;;;10.55;5.90;;;;;;;-3.57;76.18;99452.75;4996371;28;20035;-66
2022/11/16 06:50:39;;;;;;;8.60;6.40;;;;;;;-3.38;76.54;99453.31;4996872;28;20035;-65
2022/11/16 06:53:05;;;;;;;11.68;6.72;;;;;;;-3.34;75.99;99450.06;4997676;28;20038;-66
2022/11/16 06:55:30;;;;;;;14.45;6.82;;;;;;;-3.25;76.61;99459.59;4998719;28;20023;-66
2022/11/16 06:57:56;;;;;;;9.55;6.63;;;;;;;-3.21;76.14;99448.75;4997036;28;20038;-66
2022/11/16 07:00:22;;;;;;;9.48;6.47;;;;;;;-3.13;76.38;99447.31;4997443;28;20318;-66
2022/11/16 07:02:47;;;;;;;11.05;6.82;;;;;;;-3.11;75.93;99453.28;4996337;28;20044;-65
2022/11/16 07:05:13;;;;;;;10.95;7.45;;;;;;;-3.08;76.29;99455.06;4999222;28;20022;-67
2022/11/16 07:07:39;;;;;;;11.70;6.80;;;;;;;-3.04;75.54;99444.19;5005870;28;20046;-66
2022/11/16 07:10:05;;;;;;;11.35;7.15;;;;;;;-2.96;75.71;99436.00;4994638;28;20042;-66
2022/11/16 07:12:30;;;;;;;11.00;6.75;;;;;;;-2.96;75.32;99441.06;4991683;28;20034;-66
2022/11/16 07:14:56;;;;;;;12.45;7.43;;;;;;;-2.93;74.56;99449.59;4996522;28;20030;-66
2022/11/16 07:17:22;;;;;;;11.23;7.15;;;;;;;-2.88;75.00;99440.44;4996476;28;20191;-66
2022/11/16 07:19:47;;;;;;;11.65;7.18;;;;;;;-2.86;74.80;99454.03;4986361;28;20077;-66
2022/11/16 07:22:13;;;;;;;10.82;7.32;;;;;;;-2.79;74.20;99450.84;4987547;28;20035;-66
2022/11/16 07:24:38;;;;;;;9.68;7.03;;;;;;;-2.53;73.31;99445.63;5002136;28;20035;-66
2022/11/16 07:27:06;;;;;;;13.60;7.28;;;;;;;-2.70;73.45;99455.31;4986199;28;20030;-66
2022/11/16 07:29:32;;;;;;;12.75;6.65;;;;;;;-2.76;73.96;99445.84;4985904;28;20034;-66
2022/11/16 07:31:57;;;;;;;11.15;7.13;;;;;;;-2.50;74.10;99435.56;4984642;28;20078;-66
2022/11/16 07:34:23;;;;;;;10.95;6.65;;;;;;;-2.74;73.99;99453.50;4985966;28;20039;-66
2022/11/16 07:36:49;;;;;;;10.90;7.28;;;;;;;-2.49;74.37;99444.91;4986015;28;20034;-65
2022/11/16 07:39:14;;;;;;;10.90;7.13;;;;;;;-2.56;73.31;99455.69;4986208;28;20050;-66
2022/11/16 07:41:41;;;;;;;13.68;6.93;;;;;;;-2.06;72.97;99448.56;4985528;28;20252;-66
2022/11/16 07:44:07;;;;;;;14.45;8.15;;;;;;;-2.10;71.98;99447.59;4985894;28;20037;-67
2022/11/16 07:46:32;;;;;;;9.55;6.63;;;;;;;-1.77;71.73;99443.34;4985650;28;20054;-67
2022/11/16 07:48:58;;;;;;;12.80;7.32;;;;;;;-1.50;69.40;99443.13;4985399;28;20034;-67
2022/11/16 07:51:24;;;;;;;11.60;7.18;;;;;;;-1.36;69.55;99442.59;4985459;28;20039;-66
2022/11/16 07:53:56;;;;;;;10.60;7.00;;;;;;;-1.62;70.47;99438.63;4985729;28;20037;-66
2022/11/16 07:56:23;;;;;;;11.13;7.30;;;;;;;-1.24;71.17;99442.84;4984841;28;20041;-67
2022/11/16 07:58:49;;;;;;;14.45;7.30;;;;;;;-1.00;70.14;99431.53;4985897;28;20027;-66
2022/11/16 08:01:16;;;;;;;11.63;7.15;;;;;;;-1.15;69.69;99450.69;4984987;28;20038;-66
2022/11/16 08:03:43;;;;;;;11.75;6.97;;;;;;;-1.25;70.20;99447.09;4984066;28;20049;-66
2022/11/16 08:06:23;;;;;;;12.80;7.13;;;;;;;-1.07;69.95;99436.47;4985418;28;20303;-67
2022/11/16 08:08:49;;;;;;;12.32;6.53;;;;;;;-0.84;70.41;99448.81;4985496;28;20027;-66
2022/11/16 08:11:15;;;;;;;14.73;7.38;;;;;;;-0.94;68.54;99437.59;4985234;28;20077;-66
2022/11/16 08:13:41;;;;;;;11.88;6.93;;;;;;;-0.83;69.16;99449.66;4984929;28;20315;-66
2022/11/16 08:16:10;;;;;;;12.85;6.75;;;;;;;-1.14;68.91;99431.22;4985560;28;20042;-67
2022/11/16 08:18:37;;;;;;;8.88;6.57;;;;;;;-0.94;70.32;99457.06;4985044;28;20026;-66
2022/11/16 08:21:04;;;;;;;8.95;6.70;;;;;;;-0.75;70.06;99455.78;4985200;28;20022;-66
2022/11/16 08:23:30;;;;;;;10.60;7.10;;;;;;;-0.87;70.25;99454.69;4984772;28;20093;-66
2022/11/16 08:26:14;;;;;;;9.98;6.80;;;;;;;-1.05;69.47;99439.91;4997589;28;20058;-67
2022/11/16 08:28:41;;;;;;;13.48;8.23;;;;;;;-0.89;69.37;99445.31;4994085;28;20022;-68
2022/11/16 08:31:12;;;;;;;10.50;7.07;;;;;;;-0.71;69.08;99465.19;4984968;28;20019;-66
2022/11/16 08:33:38;;;;;;;12.15;8.10;;;;;;;-0.78;67.97;99451.47;4984526;28;20035;-67
2022/11/16 08:36:05;;;;;;;13.25;7.63;;;;;;;-0.65;67.54;99455.13;4984893;28;20326;-67
2022/11/16 08:38:31;;;;;;;11.23;7.22;;;;;;;-0.40;67.31;99448.84;4984878;28;20041;-67
2022/11/16 08:40:56;;;;;;;12.00;6.90;;;;;;;-0.07;68.25;99454.50;4984259;28;20039;-66
2022/11/16 08:43:22;;;;;;;12.80;7.63;;;;;;;-0.24;66.83;99447.44;4984329;28;20280;-67
2022/11/16 08:45:48;;;;;;;11.00;7.45;;;;;;;-0.04;66.64;99457.97;4984735;28;20103;-65
2022/11/16 08:48:14;;;;;;;15.23;7.78;;;;;;;0.10;66.08;99453.13;4984138;28;20050;-66
2022/11/16 08:50:40;;;;;;;12.75;7.32;;;;;;;0.09;66.00;99450.56;4984421;28;20343;-66
2022/11/16 08:53:06;;;;;;;14.35;7.85;;;;;;;0.25;67.09;99464.38;4984822;28;20027;-66
2022/11/16 08:55:32;;;;;;;10.68;6.95;;;;;;;-0.03;66.59;99461.34;4984461;28;20049;-66
2022/11/16 08:57:58;;;;;;;14.85;7.95;;;;;;;0.12;67.79;99463.31;4984563;28;20215;-66
2022/11/16 09:00:24;;;;;;;12.48;7.65;;;;;;;0.57;68.07;99464.91;4988393;28;20034;-66
2022/11/16 09:02:49;;;;;;;13.95;7.30;;;;;;;0.62;65.08;99459.88;4997343;28;20038;-66
2022/11/16 09:05:15;;;;;;;12.18;7.72;;;;;;;0.76;64.57;99448.19;4991957;28;20031;-66
2022/11/16 09:07:42;;;;;;;14.15;7.93;;;;;;;0.73;65.18;99476.19;4991225;28;20066;-68
2022/11/16 09:10:09;;;;;;;11.15;7.22;;;;;;;0.55;66.42;99471.66;4984267;28;20026;-67
2022/11/16 09:12:35;;;;;;;12.32;8.13;;;;;;;0.67;66.57;99471.84;4984355;28;20034;-67
2022/11/16 09:15:02;;;;;;;9.93;7.43;;;;;;;0.61;66.37;99474.28;5000202;28;20026;-67
2022/11/16 09:17:29;;;;;;;12.60;8.02;;;;;;;0.46;65.58;99468.97;4995475;28;20018;-67
2022/11/16 09:19:55;;;;;;;15.02;7.88;;;;;;;0.25;66.01;99469.47;4991716;28;20102;-66
2022/11/16 09:22:20;;;;;;;9.25;6.03;;;;;;;0.12;64.67;99464.16;4984089;28;20102;-66
2022/11/16 09:24:46;;;;;;;12.02;5.43;;;;;;;-0.14;64.93;99467.94;4997372;28;20039;-66
2022/11/16 09:27:11;;;;;;;11.38;6.97;;;;;;;0.05;66.08;99462.34;4992597;28;20023;-67
2022/11/16 09:29:37;;;;;;;12.70;5.47;;;;;;;0.22;65.87;99459.25;4998141;28;20037;-65
2022/11/16 09:32:03;;;;;;;6.47;4.70;;;;;;;-0.53;64.62;99457.91;5003832;28;20015;-65
2022/11/16 09:34:29;;;;;;;8.15;4.95;;;;;;;-0.35;64.80;99456.56;4995142;28;20035;-67
2022/11/16 09:36:54;;;;;;;12.57;6.72;;;;;;;-0.56;65.62;99459.53;4984201;28;20026;-66
2022/11/16 09:39:20;;;;;;;9.48;5.65;;;;;;;-0.45;65.11;99455.50;4984138;28;20026;-66
2022/11/16 09:42:00;;;;;;;7.90;5.25;;;;;;;-0.10;65.90;99460.41;4984045;28;20027;-66
2022/11/16 09:44:41;;;;;;;10.23;6.00;;;;;;;0.07;67.53;99457.28;4983627;28;20031;-66
2022/11/16 09:47:16;;;;;;;8.40;5.07;;;;;;;0.02;65.71;99436.84;4983886;28;20041;-66
2022/11/16 09:49:51;;;;;;;11.05;5.20;;;;;;;-0.16;65.86;99444.16;4984161;28;20034;-66
2022/11/16 09:52:36;;;;;;;8.00;5.70;;;;;;;-0.08;65.04;99435.84;4983284;28;20034;-68
2022/11/16 09:55:17;;;;;;;8.57;4.90;;;;;;;-0.28;63.77;99457.53;4983857;28;20045;-67
2022/11/16 09:57:44;;;;;;;7.03;5.10;;;;;;;-0.02;64.33;99455.44;4983974;28;20081;-66
2022/11/16 10:00:16;;;;;;;8.98;4.93;;;;;;;-0.43;62.88;99458.97;4983936;28;20033;-66
2022/11/16 10:02:47;;;;;;;5.75;4.35;;;;;;;-1.10;63.86;99427.94;4983682;28;20050;-65
2022/11/16 10:05:20;;;;;;;9.07;4.70;;;;;;;-0.94;64.11;99451.97;4983915;28;20078;-67
2022/11/16 10:08:01;;;;;;;7.15;5.18;;;;;;;-0.84;64.61;99442.84;4983677;28;20057;-66
2022/11/16 10:10:58;;;;;;;8.70;5.30;;;;;;;-0.51;65.74;99455.41;4964623;28;20038;-68
2022/11/16 10:13:43;;;;;;;6.43;4.60;;;;;;;-0.68;64.53;99446.56;4986778;28;20066;-67
2022/11/16 10:16:18;;;;;;;10.93;5.35;;;;;;;-0.58;64.20;99448.47;4983782;28;20046;-66
2022/11/16 10:19:02;;;;;;;7.30;4.78;;;;;;;-0.40;63.89;99447.97;4984239;28;20034;-66
2022/11/16 10:21:38;;;;;;;6.10;4.93;;;;;;;-0.51;63.80;99452.84;4987211;28;20022;-67
2022/11/16 10:24:41;;;;;;;7.50;4.78;;;;;;;-0.50;64.01;99446.06;4996287;28;20072;-67
2022/11/16 10:27:15;;;;;;;9.43;4.75;;;;;;;-0.64;63.98;99455.97;4967807;29;20082;-66
2022/11/16 10:29:53;;;;;;;4.90;3.75;;;;;;;-0.95;62.78;99456.22;5016615;28;20031;-67
2022/11/16 10:32:28;;;;;;;6.53;4.20;;;;;;;-0.79;63.52;99444.66;4987046;28;20223;-66
2022/11/16 10:35:02;;;;;;;8.93;4.82;;;;;;;-0.68;64.31;99464.34;4987208;28;20027;-67
2022/11/16 10:37:32;;;;;;;8.02;4.45;;;;;;;-0.56;63.20;99459.53;4985709;28;20101;-66
2022/11/16 10:39:57;;;;;;;5.07;3.75;;;;;;;-0.23;63.69;99454.25;4990494;28;20250;-67
2022/11/16 10:42:38;;;;;;;8.32;3.85;;;;;;;-0.33;61.05;99449.78;5006211;28;20022;-66
2022/11/16 10:45:16;;;;;;;6.15;3.40;;;;;;;-0.39;60.67;99453.06;4967487;28;20030;-67
2022/11/16 10:47:50;;;;;;;8.02;3.88;;;;;;;-0.68;60.61;99436.38;4984645;28;20270;-67
2022/11/16 10:50:23;;;;;;;8.18;3.83;;;;;;;-0.47;60.10;99462.28;4986338;28;20296;-66
2022/11/16 10:52:49;;;;;;;6.30;3.38;;;;;;;-0.88;62.50;99469.91;4986666;28;20062;-67
2022/11/16 10:55:15;;;;;;;8.85;3.58;;;;;;;-0.95;61.26;99466.38;5018439;28;20034;-67
2022/11/16 10:57:59;;;;;;;6.40;3.65;;;;;;;-0.92;62.61;99474.06;4987874;28;20031;-67
2022/11/16 11:00:39;;;;;;;7.60;3.58;;;;;;;-0.72;61.35;99469.38;5004885;28;20018;-67
2022/11/16 11:03:05;;;;;;;7.57;3.80;;;;;;;-0.77;62.88;99472.66;4976383;28;20041;-66
2022/11/16 11:05:31;;;;;;;5.40;3.72;;;;;;;-0.72;62.01;99468.53;4986533;28;20049;-66
2022/11/16 11:08:02;;;;;;;4.50;3.13;;;;;;;-0.88;62.32;99472.47;4986135;28;20038;-67
2022/11/16 11:10:32;;;;;;;4.93;2.83;;;;;;;-0.87;60.96;99469.94;4986250;28;20034;-66
2022/11/16 11:13:09;;;;;;;4.28;3.13;;;;;;;-0.90;60.50;99464.81;4986329;28;20037;-66
2022/11/16 11:15:36;;;;;;;4.55;2.50;;;;;;;-0.99;60.93;99474.75;4987875;28;20347;-66
2022/11/16 11:18:25;;;;;;;6.00;3.10;;;;;;;-0.94;62.12;99462.13;4994034;28;20038;-66
2022/11/16 11:20:56;;;;;;;5.22;3.65;;;;;;;-0.77;63.42;99465.03;4993151;28;20042;-66
2022/11/16 11:23:26;;;;;;;5.90;3.28;;;;;;;-1.02;61.61;99439.13;4991007;28;20032;-66
2022/11/16 11:25:55;;;;;;;7.97;3.55;;;;;;;-0.84;62.27;99468.28;4986249;28;20027;-66
2022/11/16 11:28:25;;;;;;;6.57;3.83;;;;;;;-0.82;62.24;99470.03;4992016;28;20106;-66
2022/11/16 11:31:04;;;;;;;6.63;3.22;;;;;;;-0.98;62.05;99445.97;5002488;28;20230;-67
2022/11/16 11:33:47;;;;;;;6.13;4.07;;;;;;;-0.81;61.82;99463.25;4985889;28;20090;-68
2022/11/16 11:36:21;;;;;;;6.78;3.70;;;;;;;-0.79;60.41;99466.69;4973310;28;20196;-67
2022/11/16 11:39:03;;;;;;;5.80;3.33;;;;;;;-1.17;60.15;99436.25;4985813;28;20390;-65
2022/11/16 11:41:38;;;;;;;7.28;3.75;;;;;;;-0.89;61.58;99450.41;4985692;28;20034;-68
2022/11/16 11:44:13;;;;;;;8.00;3.45;;;;;;;-0.70;60.73;99477.03;4985743;28;20097;-66
2022/11/16 11:46:53;;;;;;;6.43;3.45;;;;;;;-0.74;59.95;99445.63;4985859;28;20070;-66
2022/11/16 11:49:24;;;;;;;4.93;3.40;;;;;;;-0.69;59.79;99458.44;4985699;28;20058;-67
2022/11/16 11:51:52;;;;;;;7.55;3.72;;;;;;;-0.71;60.30;99453.31;4986238;28;20038;-67
2022/11/16 11:54:37;;;;;;;5.93;2.97;;;;;;;-0.62;59.41;99474.69;4985157;28;20034;-65
2022/11/16 11:57:04;;;;;;;4.13;3.20;;;;;;;-0.55;60.89;99451.94;4966363;29;20038;-66
2022/11/16 11:59:30;;;;;;;6.93;4.00;;;;;;;-0.38;60.63;99456.50;4970642;28;20039;-66
2022/11/16 12:02:33;;;;;;;5.45;3.78;;;;;;;-0.85;60.54;99456.41;5007850;28;20039;-67
2022/11/16 12:05:26;;;;;;;9.40;4.20;;;;;;;-0.84;59.71;99458.09;4984800;28;20104;-66
2022/11/16 12:08:03;;;;;;;7.57;4.47;;;;;;;-0.84;61.30;99453.91;4995257;28;20095;-67
2022/11/16 12:10:45;;;;;;;7.20;4.07;;;;;;;-0.91;61.65;99459.69;4965618;29;20046;-66
2022/11/16 12:13:29;;;;;;;8.95;4.80;;;;;;;-0.74;61.31;99454.94;4974863;28;20032;-66
2022/11/16 12:16:16;;;;;;;7.75;4.57;;;;;;;-0.75;60.42;99458.31;5003280;28;20378;-66
2022/11/16 12:19:18;;;;;;;5.63;4.13;;;;;;;-0.81;61.30;99451.41;4992284;28;20102;-66
2022/11/16 12:21:53;;;;;;;7.22;3.90;;;;;;;-0.86;61.38;99445.38;5011252;28;20043;-66